Time;durP1;ratioP1;P1;durP2;ratioP2;P2;SDS_P1;SDS_P2;PMS_P1;PMS_P2;Temp;Humidity;BMP_temperature;BMP_pressure;BME280_temperature;BME280_humidity;BME280_pressure;Samples;Min_cycle;Max_cycle;Signal;HPM_P1;HPM_P2
2022/07/04 00:00:57;;;;;;;;;;;;;;;;;;2140528;27;19923;-43
2022/07/04 00:01:58;;;;;;;;;;;;;;;;;;2140483;27;20021;-45
2022/07/04 00:03:00;;;;;;;;;;;;;;;;;;2140507;27;19923;-45
2022/07/04 00:04:01;;;;;;;;;;;;;;;;;;2140553;27;20005;-44
2022/07/04 00:05:02;;;;;;;;;;;;;;;;;;2140373;27;20017;-44
2022/07/04 00:06:03;;;;;;;;;;;;;;;;;;2140458;27;19923;-43
2022/07/04 00:07:04;;;;;;;;;;;;;;;;;;2140392;27;20002;-44
2022/07/04 00:08:05;;;;;;;;;;;;;;;;;;2140101;27;19923;-45
2022/07/04 00:09:05;;;;;;;;;;;;;;;;;;2140453;27;20073;-44
2022/07/04 00:10:06;;;;;;;;;;;;;;;;;;2140384;27;19922;-45
2022/07/04 00:11:07;;;;;;;;;;;;;;;;;;2138214;27;20471;-43
2022/07/04 00:12:08;;;;;;;;;;;;;;;;;;2131744;27;19929;-44
2022/07/04 00:13:09;;;;;;;;;;;;;;;;;;2131846;27;20403;-44
2022/07/04 00:14:10;;;;;;;;;;;;;;;;;;2131745;27;19967;-44
2022/07/04 00:15:11;;;;;;;;;;;;;;;;;;2131889;27;19923;-44
2022/07/04 00:16:12;;;;;;;;;;;;;;;;;;2131831;27;19927;-44
2022/07/04 00:17:12;;;;;;;;;;;;;;;;;;2132048;27;19930;-44
2022/07/04 00:18:13;;;;;;;;;;;;;;;;;;2131730;27;20009;-44
2022/07/04 00:19:14;;;;;;;;;;;;;;;;;;2131738;27;19923;-45
2022/07/04 00:20:15;;;;;;;;;;;;;;;;;;2131899;27;19923;-44
2022/07/04 00:21:16;;;;;;;;;;;;;;;;;;2131601;27;20017;-45
2022/07/04 00:22:17;;;;;;;;;;;;;;;;;;2131947;27;20382;-44
2022/07/04 00:23:17;;;;;;;;;;;;;;;;;;2131660;27;19923;-46
2022/07/04 00:24:18;;;;;;;;;;;;;;;;;;2131940;27;19927;-47
2022/07/04 00:25:19;;;;;;;;;;;;;;;;;;2131881;27;20014;-44
2022/07/04 00:26:20;;;;;;;;;;;;;;;;;;2131536;27;19930;-45
2022/07/04 00:27:21;;;;;;;;;;;;;;;;;;2131615;27;20328;-45
2022/07/04 00:28:22;;;;;;;;;;;;;;;;;;2131816;27;19931;-44
2022/07/04 00:29:23;;;;;;;;;;;;;;;;;;2131616;27;19923;-44
2022/07/04 00:30:24;;;;;;;;;;;;;;;;;;2131963;27;19923;-47
2022/07/04 00:31:25;;;;;;;;;;;;;;;;;;2131633;27;19927;-46
2022/07/04 00:32:25;;;;;;;;;;;;;;;;;;2131512;27;19923;-46
2022/07/04 00:33:26;;;;;;;;;;;;;;;;;;2131637;27;19930;-46
2022/07/04 00:34:27;;;;;;;;;;;;;;;;;;2131636;27;19953;-46
2022/07/04 00:35:28;;;;;;;;;;;;;;;;;;2131217;27;20014;-47
2022/07/04 00:36:29;;;;;;;;;;;;;;;;;;2131578;27;19966;-46
2022/07/04 00:37:30;;;;;;;;;;;;;;;;;;2131920;27;19950;-44
2022/07/04 00:38:30;;;;;;;;;;;;;;;;;;2131654;27;20014;-44
2022/07/04 00:39:31;;;;;;;;;;;;;;;;;;2131732;27;19923;-46
2022/07/04 00:40:32;;;;;;;;;;;;;;;;;;2131659;27;19930;-45
2022/07/04 00:41:33;;;;;;;;;;;;;;;;;;2131590;27;19930;-44
2022/07/04 00:42:34;;;;;;;;;;;;;;;;;;2131604;27;19930;-45
2022/07/04 00:43:35;;;;;;;;;;;;;;;;;;2131635;27;19962;-44
2022/07/04 00:44:55;;;;;;;;;;;;;;;;;;2131776;27;20295;-44
2022/07/04 00:45:56;;;;;;;;;;;;;;;;;;2131647;27;20017;-44
2022/07/04 00:46:57;;;;;;;;;;;;;;;;;;2131442;27;19946;-45
2022/07/04 00:47:58;;;;;;;;;;;;;;;;;;2131575;27;20379;-46
2022/07/04 00:48:59;;;;;;;;;;;;;;;;;;2131547;27;20013;-45
2022/07/04 00:50:00;;;;;;;;;;;;;;;;;;2131589;27;20548;-44
2022/07/04 00:51:01;;;;;;;;;;;;;;;;;;2131643;27;19948;-44
2022/07/04 00:52:02;;;;;;;;;;;;;;;;;;2131851;27;20293;-44
2022/07/04 00:53:02;;;;;;;;;;;;;;;;;;2131918;27;19965;-46
2022/07/04 00:54:03;;;;;;;;;;;;;;;;;;2131514;27;20374;-46
2022/07/04 00:55:04;;;;;;;;;;;;;;;;;;2131559;27;20033;-46
2022/07/04 00:56:05;;;;;;;;;;;;;;;;;;2131593;27;19923;-46
2022/07/04 00:57:06;;;;;;;;;;;;;;;;;;2131470;27;20013;-46
2022/07/04 00:58:07;;;;;;;;;;;;;;;;;;2131566;27;19966;-46
2022/07/04 00:59:07;;;;;;;;;;;;;;;;;;2131468;27;19923;-46
2022/07/04 01:00:09;;;;;;;;;;;;;;;;;;2131571;27;19929;-47
2022/07/04 01:01:09;;;;;;;;;;;;;;;;;;2131531;27;19997;-46
2022/07/04 01:02:10;;;;;;;;;;;;;;;;;;2131434;27;19923;-47
2022/07/04 01:03:11;;;;;;;;;;;;;;;;;;2131714;27;19972;-46
2022/07/04 01:04:12;;;;;;;;;;;;;;;;;;2134353;27;19923;-47
2022/07/04 01:05:13;;;;;;;;;;;;;;;;;;2140147;27;19931;-46
2022/07/04 01:06:15;;;;;;;;;;;;;;;;;;2140209;27;19922;-44
2022/07/04 01:07:16;;;;;;;;;;;;;;;;;;2140019;27;20395;-44
2022/07/04 01:08:17;;;;;;;;;;;;;;;;;;2139993;27;19958;-44
2022/07/04 01:09:18;;;;;;;;;;;;;;;;;;2140104;27;19922;-44
2022/07/04 01:10:18;;;;;;;;;;;;;;;;;;2140035;27;19960;-44
2022/07/04 01:11:19;;;;;;;;;;;;;;;;;;2136365;27;19923;-46
2022/07/04 01:12:20;;;;;;;;;;;;;;;;;;2131346;27;19923;-47
2022/07/04 01:13:21;;;;;;;;;;;;;;;;;;2131174;27;19923;-47
2022/07/04 01:14:22;;;;;;;;;;;;;;;;;;2130787;27;19929;-48
2022/07/04 01:15:23;;;;;;;;;;;;;;;;;;2130813;27;19929;-47
2022/07/04 01:16:24;;;;;;;;;;;;;;;;;;2130765;27;19972;-47
2022/07/04 01:17:24;;;;;;;;;;;;;;;;;;2139290;27;19945;-48
2022/07/04 01:18:25;;;;;;;;;;;;;;;;;;2140043;27;19929;-46
2022/07/04 01:19:26;;;;;;;;;;;;;;;;;;2140007;27;20058;-47
2022/07/04 01:20:27;;;;;;;;;;;;;;;;;;2140075;27;20021;-46
2022/07/04 01:21:28;;;;;;;;;;;;;;;;;;2140179;27;20401;-46
2022/07/04 01:22:29;;;;;;;;;;;;;;;;;;2140333;27;19971;-47
2022/07/04 01:23:30;;;;;;;;;;;;;;;;;;2139945;27;20295;-46
2022/07/04 01:24:31;;;;;;;;;;;;;;;;;;2140356;27;19933;-43
2022/07/04 01:25:32;;;;;;;;;;;;;;;;;;2140014;27;20043;-43
2022/07/04 01:26:33;;;;;;;;;;;;;;;;;;2139884;27;19978;-43
2022/07/04 01:27:33;;;;;;;;;;;;;;;;;;2139929;27;19926;-43
2022/07/04 01:28:34;;;;;;;;;;;;;;;;;;2139946;27;19922;-43
2022/07/04 01:29:35;;;;;;;;;;;;;;;;;;2140274;27;20346;-44
2022/07/04 01:30:36;;;;;;;;;;;;;;;;;;2139889;27;19975;-43
2022/07/04 01:31:37;;;;;;;;;;;;;;;;;;2140117;27;20311;-44
2022/07/04 01:32:38;;;;;;;;;;;;;;;;;;2140246;27;19937;-46
2022/07/04 01:33:39;;;;;;;;;;;;;;;;;;2140037;27;20394;-47
2022/07/04 01:34:40;;;;;;;;;;;;;;;;;;2140113;27;19927;-43
2022/07/04 01:35:44;;;;;;;;;;;;;;;;;;2139930;27;20312;-43
2022/07/04 01:36:45;;;;;;;;;;;;;;;;;;2139926;27;19962;-43
2022/07/04 01:37:45;;;;;;;;;;;;;;;;;;2140095;27;19970;-44
2022/07/04 01:38:46;;;;;;;;;;;;;;;;;;2140176;27;20435;-47
2022/07/04 01:39:47;;;;;;;;;;;;;;;;;;2139844;27;19976;-47
2022/07/04 01:40:48;;;;;;;;;;;;;;;;;;2140236;27;19934;-47
2022/07/04 01:41:49;;;;;;;;;;;;;;;;;;2139844;27;20013;-46
2022/07/04 01:42:50;;;;;;;;;;;;;;;;;;2139935;27;20175;-46
2022/07/04 01:43:50;;;;;;;;;;;;;;;;;;2140006;27;20388;-47
2022/07/04 01:44:51;;;;;;;;;;;;;;;;;;2139913;27;19962;-46
2022/07/04 01:45:52;;;;;;;;;;;;;;;;;;2139791;27;20461;-48
2022/07/04 01:46:53;;;;;;;;;;;;;;;;;;2139825;27;20201;-48
2022/07/04 01:47:54;;;;;;;;;;;;;;;;;;2140870;27;20379;-46
2022/07/04 01:48:55;;;;;;;;;;;;;;;;;;2141298;27;19930;-48
2022/07/04 01:49:56;;;;;;;;;;;;;;;;;;2141667;27;19923;-46
2022/07/04 01:50:57;;;;;;;;;;;;;;;;;;2141242;27;20072;-46
2022/07/04 01:51:58;;;;;;;;;;;;;;;;;;2141296;27;20047;-46
2022/07/04 01:52:59;;;;;;;;;;;;;;;;;;2141329;27;20009;-47
2022/07/04 01:54:00;;;;;;;;;;;;;;;;;;2141652;27;19934;-43
2022/07/04 01:55:00;;;;;;;;;;;;;;;;;;2141419;27;20348;-43
2022/07/04 01:56:01;;;;;;;;;;;;;;;;;;2141207;27;19922;-44
2022/07/04 01:57:02;;;;;;;;;;;;;;;;;;2141332;27;19922;-43
2022/07/04 01:58:03;;;;;;;;;;;;;;;;;;2141174;27;19922;-44
2022/07/04 01:59:04;;;;;;;;;;;;;;;;;;2141418;27;19937;-43
2022/07/04 02:01:30;;;;;;;;;;;;;;;;;;2138471;27;19922;-43
2022/07/04 02:02:31;;;;;;;;;;;;;;;;;;2141182;27;19923;-44
2022/07/04 02:03:32;;;;;;;;;;;;;;;;;;2141415;27;20398;-47
2022/07/04 02:04:33;;;;;;;;;;;;;;;;;;2141248;27;19923;-46
2022/07/04 02:05:34;;;;;;;;;;;;;;;;;;2141402;27;19923;-46
2022/07/04 02:06:35;;;;;;;;;;;;;;;;;;2141065;27;19995;-46
2022/07/04 02:07:36;;;;;;;;;;;;;;;;;;2141245;27;19934;-46
2022/07/04 02:09:56;;;;;;;;;;;;;;;;;;2141596;27;20466;-44
2022/07/04 02:10:57;;;;;;;;;;;;;;;;;;2140567;27;20477;-43
2022/07/04 02:13:17;;;;;;;;;;;;;;;;;;2132457;27;20380;-44
2022/07/04 02:14:18;;;;;;;;;;;;;;;;;;2132741;27;20014;-43
2022/07/04 02:15:19;;;;;;;;;;;;;;;;;;2132519;27;20323;-44
2022/07/04 02:16:20;;;;;;;;;;;;;;;;;;2132493;27;19977;-43
2022/07/04 02:17:21;;;;;;;;;;;;;;;;;;2132613;27;19950;-44
2022/07/04 02:18:22;;;;;;;;;;;;;;;;;;2132527;27;20013;-43
2022/07/04 02:19:23;;;;;;;;;;;;;;;;;;2132605;27;19930;-45
2022/07/04 02:20:23;;;;;;;;;;;;;;;;;;2132953;27;20351;-43
2022/07/04 02:21:24;;;;;;;;;;;;;;;;;;2132596;27;19923;-44
2022/07/04 02:22:25;;;;;;;;;;;;;;;;;;2132510;27;19967;-45
2022/07/04 02:23:26;;;;;;;;;;;;;;;;;;2132845;27;19958;-44
2022/07/04 02:24:27;;;;;;;;;;;;;;;;;;2132490;27;20005;-44
2022/07/04 02:25:28;;;;;;;;;;;;;;;;;;2132637;27;19972;-43
2022/07/04 02:26:28;;;;;;;;;;;;;;;;;;2132447;27;20447;-44
2022/07/04 02:27:29;;;;;;;;;;;;;;;;;;2132602;27;19971;-43
2022/07/04 02:28:30;;;;;;;;;;;;;;;;;;2132729;27;19971;-46
2022/07/04 02:29:31;;;;;;;;;;;;;;;;;;2132454;27;20295;-46
2022/07/04 02:30:32;;;;;;;;;;;;;;;;;;2132902;27;20010;-47
2022/07/04 02:31:33;;;;;;;;;;;;;;;;;;2132391;27;19945;-47
2022/07/04 02:32:34;;;;;;;;;;;;;;;;;;2132397;27;19930;-43
2022/07/04 02:33:36;;;;;;;;;;;;;;;;;;2132477;27;19923;-43
2022/07/04 02:34:37;;;;;;;;;;;;;;;;;;2132317;27;19923;-44
2022/07/04 02:35:38;;;;;;;;;;;;;;;;;;2132397;27;19985;-44
2022/07/04 02:36:39;;;;;;;;;;;;;;;;;;2132373;27;19929;-44
2022/07/04 02:37:40;;;;;;;;;;;;;;;;;;2132259;27;19975;-44
2022/07/04 02:38:41;;;;;;;;;;;;;;;;;;2132478;27;19930;-43
2022/07/04 02:39:42;;;;;;;;;;;;;;;;;;2132752;27;20284;-46
2022/07/04 02:40:42;;;;;;;;;;;;;;;;;;2132298;27;20002;-46
2022/07/04 02:41:43;;;;;;;;;;;;;;;;;;2132345;27;20355;-47
2022/07/04 02:42:44;;;;;;;;;;;;;;;;;;2132318;27;20045;-46
2022/07/04 02:43:45;;;;;;;;;;;;;;;;;;2132252;27;20029;-48
2022/07/04 02:44:46;;;;;;;;;;;;;;;;;;2132309;27;20329;-46
2022/07/04 02:45:48;;;;;;;;;;;;;;;;;;2132459;27;19968;-46
2022/07/04 02:46:49;;;;;;;;;;;;;;;;;;2132437;27;19931;-43
2022/07/04 02:47:50;;;;;;;;;;;;;;;;;;2132247;27;19927;-43
2022/07/04 02:48:50;;;;;;;;;;;;;;;;;;2132345;27;19948;-43
2022/07/04 02:49:51;;;;;;;;;;;;;;;;;;2132282;27;19927;-43
2022/07/04 02:50:52;;;;;;;;;;;;;;;;;;2132316;27;19927;-43
2022/07/04 02:51:53;;;;;;;;;;;;;;;;;;2132268;27;19923;-43
2022/07/04 02:52:54;;;;;;;;;;;;;;;;;;2132573;27;19923;-46
2022/07/04 02:53:55;;;;;;;;;;;;;;;;;;2132299;27;19973;-47
2022/07/04 02:54:56;;;;;;;;;;;;;;;;;;2132432;27;20085;-46
2022/07/04 02:55:57;;;;;;;;;;;;;;;;;;2132173;27;19923;-46
2022/07/04 02:56:57;;;;;;;;;;;;;;;;;;2137446;27;19958;-46
2022/07/04 02:57:58;;;;;;;;;;;;;;;;;;2140744;27;20357;-47
2022/07/04 02:58:59;;;;;;;;;;;;;;;;;;2140877;27;19926;-47
2022/07/04 03:00:00;;;;;;;;;;;;;;;;;;2140995;27;19987;-46
2022/07/04 03:01:01;;;;;;;;;;;;;;;;;;2140931;27;19923;-44
2022/07/04 03:02:02;;;;;;;;;;;;;;;;;;2140969;27;19975;-43
2022/07/04 03:03:03;;;;;;;;;;;;;;;;;;2140834;27;19926;-45
2022/07/04 03:04:04;;;;;;;;;;;;;;;;;;2140812;27;20021;-43
2022/07/04 03:05:04;;;;;;;;;;;;;;;;;;2140830;27;19923;-43
2022/07/04 03:06:05;;;;;;;;;;;;;;;;;;2140979;27;19923;-44
2022/07/04 03:07:07;;;;;;;;;;;;;;;;;;2140735;27;19973;-44
2022/07/04 03:08:08;;;;;;;;;;;;;;;;;;2140886;27;19957;-44
2022/07/04 03:09:09;;;;;;;;;;;;;;;;;;2140899;27;19929;-43
2022/07/04 03:10:10;;;;;;;;;;;;;;;;;;2141120;27;19930;-44
2022/07/04 03:11:11;;;;;;;;;;;;;;;;;;2138737;27;19930;-46
2022/07/04 03:12:11;;;;;;;;;;;;;;;;;;2132170;27;19923;-47
2022/07/04 03:13:12;;;;;;;;;;;;;;;;;;2132489;27;19923;-45
2022/07/04 03:14:13;;;;;;;;;;;;;;;;;;2132143;27;20009;-43
2022/07/04 03:15:14;;;;;;;;;;;;;;;;;;2132361;27;20428;-47
2022/07/04 03:16:15;;;;;;;;;;;;;;;;;;2132406;27;19923;-46
2022/07/04 03:17:16;;;;;;;;;;;;;;;;;;2132209;27;19927;-46
2022/07/04 03:18:17;;;;;;;;;;;;;;;;;;2132072;27;19977;-47
2022/07/04 03:19:18;;;;;;;;;;;;;;;;;;2132099;27;20017;-47
2022/07/04 03:20:18;;;;;;;;;;;;;;;;;;2132152;27;20014;-46
2022/07/04 03:21:19;;;;;;;;;;;;;;;;;;2132057;27;19923;-46
2022/07/04 03:22:20;;;;;;;;;;;;;;;;;;2132060;27;19935;-46
2022/07/04 03:23:21;;;;;;;;;;;;;;;;;;2132192;27;19934;-45
2022/07/04 03:24:22;;;;;;;;;;;;;;;;;;2132222;27;19930;-43
2022/07/04 03:25:23;;;;;;;;;;;;;;;;;;2132052;27;20375;-44
2022/07/04 03:26:24;;;;;;;;;;;;;;;;;;2132045;27;19923;-43
2022/07/04 03:27:25;;;;;;;;;;;;;;;;;;2132278;27;19923;-46
2022/07/04 03:28:26;;;;;;;;;;;;;;;;;;2132259;27;20034;-46
2022/07/04 03:29:27;;;;;;;;;;;;;;;;;;2132452;27;19929;-47
2022/07/04 03:30:27;;;;;;;;;;;;;;;;;;2132011;27;20021;-47
2022/07/04 03:31:28;;;;;;;;;;;;;;;;;;2132124;27;19962;-47
2022/07/04 03:32:29;;;;;;;;;;;;;;;;;;2131943;27;19927;-46
2022/07/04 03:33:30;;;;;;;;;;;;;;;;;;2132003;27;20392;-45
2022/07/04 03:34:31;;;;;;;;;;;;;;;;;;2131971;27;20530;-46
2022/07/04 03:35:32;;;;;;;;;;;;;;;;;;2132079;27;19944;-48
2022/07/04 03:36:33;;;;;;;;;;;;;;;;;;2131884;27;20276;-47
2022/07/04 03:37:34;;;;;;;;;;;;;;;;;;2131945;27;19955;-46
2022/07/04 03:38:35;;;;;;;;;;;;;;;;;;2132192;27;19979;-44
2022/07/04 03:39:35;;;;;;;;;;;;;;;;;;2131991;27;19984;-45
2022/07/04 03:40:38;;;;;;;;;;;;;;;;;;2132148;27;19923;-46
2022/07/04 03:41:38;;;;;;;;;;;;;;;;;;2131994;27;20299;-47
2022/07/04 03:42:39;;;;;;;;;;;;;;;;;;2132013;27;19974;-46
2022/07/04 03:43:40;;;;;;;;;;;;;;;;;;2131916;27;19927;-46
2022/07/04 03:44:41;;;;;;;;;;;;;;;;;;2131892;27;19985;-46
2022/07/04 03:45:42;;;;;;;;;;;;;;;;;;2131910;27;20396;-46
2022/07/04 03:46:43;;;;;;;;;;;;;;;;;;2131837;27;19923;-47
2022/07/04 03:47:44;;;;;;;;;;;;;;;;;;2131823;27;19927;-46
2022/07/04 03:48:45;;;;;;;;;;;;;;;;;;2132000;27;19923;-47
2022/07/04 03:49:45;;;;;;;;;;;;;;;;;;2131893;27;19923;-46
2022/07/04 03:50:46;;;;;;;;;;;;;;;;;;2132022;27;19930;-46
2022/07/04 03:51:47;;;;;;;;;;;;;;;;;;2132048;27;20331;-44
2022/07/04 03:52:48;;;;;;;;;;;;;;;;;;2133582;27;19979;-47
2022/07/04 03:53:49;;;;;;;;;;;;;;;;;;2140397;27;19927;-47
2022/07/04 03:54:50;;;;;;;;;;;;;;;;;;2140565;27;19926;-48
2022/07/04 03:55:51;;;;;;;;;;;;;;;;;;2140411;27;20361;-46
2022/07/04 03:56:52;;;;;;;;;;;;;;;;;;2140517;27;19950;-45
2022/07/04 03:57:52;;;;;;;;;;;;;;;;;;2140489;27;20269;-47
2022/07/04 03:58:53;;;;;;;;;;;;;;;;;;2140701;27;20005;-45
2022/07/04 03:59:54;;;;;;;;;;;;;;;;;;2140759;27;19958;-46
2022/07/04 04:00:55;;;;;;;;;;;;;;;;;;2140317;27;20221;-46
2022/07/04 04:01:56;;;;;;;;;;;;;;;;;;2140458;27;19961;-48
2022/07/04 04:02:57;;;;;;;;;;;;;;;;;;2140527;27;19923;-48
2022/07/04 04:05:26;;;;;;;;;;;;;;;;;;2140341;27;20515;-46
2022/07/04 04:06:27;;;;;;;;;;;;;;;;;;2140423;27;20409;-46
2022/07/04 04:07:28;;;;;;;;;;;;;;;;;;2140320;27;20023;-47
2022/07/04 04:08:29;;;;;;;;;;;;;;;;;;2140362;27;19923;-48
2022/07/04 04:09:30;;;;;;;;;;;;;;;;;;2140849;27;20287;-47
2022/07/04 04:10:31;;;;;;;;;;;;;;;;;;2139748;27;19929;-46
2022/07/04 04:11:32;;;;;;;;;;;;;;;;;;2135048;27;20009;-44
2022/07/04 04:12:33;;;;;;;;;;;;;;;;;;2131711;27;20375;-43
2022/07/04 04:13:33;;;;;;;;;;;;;;;;;;2132063;27;19923;-43
2022/07/04 04:14:34;;;;;;;;;;;;;;;;;;2131986;27;19923;-44
2022/07/04 04:15:35;;;;;;;;;;;;;;;;;;2131785;27;19923;-44
2022/07/04 04:16:36;;;;;;;;;;;;;;;;;;2132141;27;19923;-44
2022/07/04 04:17:37;;;;;;;;;;;;;;;;;;2131992;27;20036;-47
2022/07/04 04:18:38;;;;;;;;;;;;;;;;;;2131860;27;19927;-46
2022/07/04 04:19:39;;;;;;;;;;;;;;;;;;2131919;27;19958;-46
2022/07/04 04:20:40;;;;;;;;;;;;;;;;;;2131642;27;20448;-46
2022/07/04 04:21:40;;;;;;;;;;;;;;;;;;2134404;27;19987;-47
2022/07/04 04:22:41;;;;;;;;;;;;;;;;;;2140320;27;19923;-46
2022/07/04 04:23:42;;;;;;;;;;;;;;;;;;2140556;27;19966;-46
2022/07/04 04:24:43;;;;;;;;;;;;;;;;;;2140474;27;20292;-46
2022/07/04 04:25:44;;;;;;;;;;;;;;;;;;2140284;27;20386;-46
2022/07/04 04:26:45;;;;;;;;;;;;;;;;;;2140449;27;19930;-46
2022/07/04 04:27:46;;;;;;;;;;;;;;;;;;2140436;27;20009;-46
2022/07/04 04:28:47;;;;;;;;;;;;;;;;;;2140722;27;20229;-44
2022/07/04 04:29:48;;;;;;;;;;;;;;;;;;2140508;27;19923;-48
2022/07/04 04:30:49;;;;;;;;;;;;;;;;;;2140353;27;19933;-47
2022/07/04 04:31:50;;;;;;;;;;;;;;;;;;2140262;27;20313;-46
2022/07/04 04:32:51;;;;;;;;;;;;;;;;;;2140197;27;19923;-46
2022/07/04 04:33:52;;;;;;;;;;;;;;;;;;2140429;27;20021;-46
2022/07/04 04:34:53;;;;;;;;;;;;;;;;;;2140535;27;20009;-47
2022/07/04 04:35:53;;;;;;;;;;;;;;;;;;2140257;27;20017;-46
2022/07/04 04:36:54;;;;;;;;;;;;;;;;;;2140434;27;19923;-44
2022/07/04 04:37:55;;;;;;;;;;;;;;;;;;2140317;27;19922;-44
2022/07/04 04:38:56;;;;;;;;;;;;;;;;;;2140515;27;20348;-43
2022/07/04 04:39:57;;;;;;;;;;;;;;;;;;2140216;27;19950;-44
2022/07/04 04:40:58;;;;;;;;;;;;;;;;;;2140326;27;19923;-44
2022/07/04 04:41:58;;;;;;;;;;;;;;;;;;2140198;27;19963;-44
2022/07/04 04:42:59;;;;;;;;;;;;;;;;;;2140606;27;19926;-44
2022/07/04 04:44:00;;;;;;;;;;;;;;;;;;2140665;27;19923;-49
2022/07/04 04:45:01;;;;;;;;;;;;;;;;;;2140175;27;20359;-47
2022/07/04 04:46:02;;;;;;;;;;;;;;;;;;2140206;27;19929;-47
2022/07/04 04:47:03;;;;;;;;;;;;;;;;;;2140488;27;19923;-43
2022/07/04 04:48:04;;;;;;;;;;;;;;;;;;2140174;27;20073;-43
2022/07/04 04:49:05;;;;;;;;;;;;;;;;;;2140123;27;19992;-43
2022/07/04 04:50:06;;;;;;;;;;;;;;;;;;2139753;27;19958;-47
2022/07/04 04:51:06;;;;;;;;;;;;;;;;;;2140024;27;19975;-48
2022/07/04 04:52:09;;;;;;;;;;;;;;;;;;2140490;27;20009;-47
2022/07/04 04:53:10;;;;;;;;;;;;;;;;;;2140446;27;19926;-48
2022/07/04 04:54:11;;;;;;;;;;;;;;;;;;2140240;27;20176;-48
2022/07/04 04:55:12;;;;;;;;;;;;;;;;;;2140209;27;19966;-48
2022/07/04 04:56:13;;;;;;;;;;;;;;;;;;2140154;27;20311;-51
2022/07/04 04:57:14;;;;;;;;;;;;;;;;;;2140172;27;19923;-50
2022/07/04 04:58:15;;;;;;;;;;;;;;;;;;2140137;27;20386;-47
2022/07/04 04:59:16;;;;;;;;;;;;;;;;;;2140392;27;19923;-48
2022/07/04 05:00:16;;;;;;;;;;;;;;;;;;2140169;27;19952;-47
2022/07/04 05:01:17;;;;;;;;;;;;;;;;;;2140061;27;20197;-47
2022/07/04 05:02:38;;;;;;;;;;;;;;;;;;2140161;27;20274;-47
2022/07/04 05:03:39;;;;;;;;;;;;;;;;;;2140071;27;19922;-47
2022/07/04 05:04:40;;;;;;;;;;;;;;;;;;2140101;27;19975;-48
2022/07/04 05:05:41;;;;;;;;;;;;;;;;;;2140456;27;19922;-47
2022/07/04 05:06:42;;;;;;;;;;;;;;;;;;2140125;27;20361;-48
2022/07/04 05:07:43;;;;;;;;;;;;;;;;;;2139952;27;19980;-47
2022/07/04 05:08:44;;;;;;;;;;;;;;;;;;2140158;27;19926;-48
2022/07/04 05:09:45;;;;;;;;;;;;;;;;;;2140557;27;20348;-44
2022/07/04 05:10:46;;;;;;;;;;;;;;;;;;2140150;27;20006;-44
2022/07/04 05:11:46;;;;;;;;;;;;;;;;;;2132247;27;19931;-45
2022/07/04 05:12:47;;;;;;;;;;;;;;;;;;2131381;27;19971;-44
2022/07/04 05:13:48;;;;;;;;;;;;;;;;;;2131651;27;20026;-45
2022/07/04 05:14:49;;;;;;;;;;;;;;;;;;2131451;27;19923;-44
2022/07/04 05:15:51;;;;;;;;;;;;;;;;;;2131250;27;20431;-45
2022/07/04 05:16:53;;;;;;;;;;;;;;;;;;2131396;27;19962;-44
2022/07/04 05:17:54;;;;;;;;;;;;;;;;;;2131485;27;20026;-44
2022/07/04 05:18:54;;;;;;;;;;;;;;;;;;2131533;27;20296;-44
2022/07/04 05:19:55;;;;;;;;;;;;;;;;;;2131409;27;19923;-44
2022/07/04 05:20:56;;;;;;;;;;;;;;;;;;2131936;27;20001;-44
2022/07/04 05:21:57;;;;;;;;;;;;;;;;;;2131379;27;19927;-44
2022/07/04 05:22:58;;;;;;;;;;;;;;;;;;2132238;27;19923;-44
2022/07/04 05:23:59;;;;;;;;;;;;;;;;;;2133256;27;19948;-47
2022/07/04 05:25:00;;;;;;;;;;;;;;;;;;2132790;27;20088;-48
2022/07/04 05:26:00;;;;;;;;;;;;;;;;;;2132807;27;20491;-49
2022/07/04 05:27:01;;;;;;;;;;;;;;;;;;2132904;27;19923;-50
2022/07/04 05:28:02;;;;;;;;;;;;;;;;;;2132944;27;19927;-48
2022/07/04 05:29:03;;;;;;;;;;;;;;;;;;2133095;27;19923;-44
2022/07/04 05:30:04;;;;;;;;;;;;;;;;;;2133085;27;20321;-45
2022/07/04 05:31:05;;;;;;;;;;;;;;;;;;2132823;27;19973;-46
2022/07/04 05:32:06;;;;;;;;;;;;;;;;;;2132794;27;19962;-47
2022/07/04 05:33:07;;;;;;;;;;;;;;;;;;2132960;27;19924;-45
2022/07/04 05:34:08;;;;;;;;;;;;;;;;;;2132771;27;20387;-45
2022/07/04 05:35:08;;;;;;;;;;;;;;;;;;2132939;27;20018;-46
2022/07/04 05:36:09;;;;;;;;;;;;;;;;;;2132814;27;19923;-45
2022/07/04 05:37:10;;;;;;;;;;;;;;;;;;2133134;27;20017;-45
2022/07/04 05:38:11;;;;;;;;;;;;;;;;;;2132995;27;19923;-47
2022/07/04 05:39:12;;;;;;;;;;;;;;;;;;2132907;27;20371;-48
2022/07/04 05:40:13;;;;;;;;;;;;;;;;;;2132828;27;19931;-44
2022/07/04 05:41:14;;;;;;;;;;;;;;;;;;2132804;27;20372;-45
2022/07/04 05:42:15;;;;;;;;;;;;;;;;;;2132756;27;19967;-45
2022/07/04 05:43:15;;;;;;;;;;;;;;;;;;2132843;27;19962;-45
2022/07/04 05:44:16;;;;;;;;;;;;;;;;;;2132884;27;19923;-44
2022/07/04 05:45:17;;;;;;;;;;;;;;;;;;2134153;27;19968;-44
2022/07/04 05:46:18;;;;;;;;;;;;;;;;;;2136212;27;19939;-44
2022/07/04 05:47:19;;;;;;;;;;;;;;;;;;2132670;27;19929;-44
2022/07/04 05:48:20;;;;;;;;;;;;;;;;;;2133144;27;20311;-49
2022/07/04 05:49:21;;;;;;;;;;;;;;;;;;2132660;27;19979;-48
2022/07/04 05:50:22;;;;;;;;;;;;;;;;;;2132879;27;20018;-49
2022/07/04 05:51:23;;;;;;;;;;;;;;;;;;2132780;27;20422;-48
2022/07/04 05:52:24;;;;;;;;;;;;;;;;;;2132757;27;19971;-48
2022/07/04 05:53:25;;;;;;;;;;;;;;;;;;2132795;27;20010;-49
2022/07/04 05:54:26;;;;;;;;;;;;;;;;;;2133249;27;20022;-47
2022/07/04 05:55:26;;;;;;;;;;;;;;;;;;2132815;27;19966;-49
2022/07/04 05:56:28;;;;;;;;;;;;;;;;;;2132684;27;20295;-49
2022/07/04 05:57:28;;;;;;;;;;;;;;;;;;2133161;27;20009;-50
2022/07/04 05:58:29;;;;;;;;;;;;;;;;;;2132729;27;19968;-51
2022/07/04 05:59:30;;;;;;;;;;;;;;;;;;2132836;27;20009;-48
2022/07/04 06:00:31;;;;;;;;;;;;;;;;;;2132733;27;19935;-48
2022/07/04 06:01:32;;;;;;;;;;;;;;;;;;2132639;27;20394;-47
2022/07/04 06:02:33;;;;;;;;;;;;;;;;;;2133141;27;19923;-48
2022/07/04 06:03:36;;;;;;;;;;;;;;;;;;2132653;27;19971;-49
2022/07/04 06:04:37;;;;;;;;;;;;;;;;;;2132951;27;20010;-49
2022/07/04 06:05:38;;;;;;;;;;;;;;;;;;2132583;27;19930;-49
2022/07/04 06:06:39;;;;;;;;;;;;;;;;;;2132763;27;20014;-48
2022/07/04 06:07:40;;;;;;;;;;;;;;;;;;2132446;27;19927;-48
2022/07/04 06:08:40;;;;;;;;;;;;;;;;;;2132687;27;19962;-47
2022/07/04 06:09:41;;;;;;;;;;;;;;;;;;2132728;27;19923;-46
2022/07/04 06:10:42;;;;;;;;;;;;;;;;;;2132679;27;19927;-45
2022/07/04 06:11:43;;;;;;;;;;;;;;;;;;2132486;27;19923;-44
2022/07/04 06:12:44;;;;;;;;;;;;;;;;;;2132546;27;19934;-46
2022/07/04 06:13:45;;;;;;;;;;;;;;;;;;2132650;27;20428;-48
2022/07/04 06:14:45;;;;;;;;;;;;;;;;;;2132899;27;19942;-49
2022/07/04 06:15:47;;;;;;;;;;;;;;;;;;2132696;27;19927;-48
2022/07/04 06:16:48;;;;;;;;;;;;;;;;;;2132698;27;19923;-45
2022/07/04 06:17:49;;;;;;;;;;;;;;;;;;2132632;27;19927;-45
2022/07/04 06:18:50;;;;;;;;;;;;;;;;;;2132559;27;20145;-46
2022/07/04 06:19:50;;;;;;;;;;;;;;;;;;2132802;27;20034;-45
2022/07/04 06:20:51;;;;;;;;;;;;;;;;;;2132411;27;20379;-45
2022/07/04 06:21:52;;;;;;;;;;;;;;;;;;2132664;27;19923;-45
2022/07/04 06:22:53;;;;;;;;;;;;;;;;;;2132366;27;20415;-46
2022/07/04 06:23:54;;;;;;;;;;;;;;;;;;2132827;27;19954;-46
2022/07/04 06:24:55;;;;;;;;;;;;;;;;;;2132669;27;19923;-45
2022/07/04 06:25:55;;;;;;;;;;;;;;;;;;2132904;27;19929;-46
2022/07/04 06:26:56;;;;;;;;;;;;;;;;;;2133001;27;19959;-45
2022/07/04 06:27:57;;;;;;;;;;;;;;;;;;2132387;27;19927;-45
2022/07/04 06:28:58;;;;;;;;;;;;;;;;;;2132440;27;19923;-46
2022/07/04 06:30:00;;;;;;;;;;;;;;;;;;2132492;27;20413;-45
2022/07/04 06:31:01;;;;;;;;;;;;;;;;;;2132533;27;19960;-44
2022/07/04 06:32:02;;;;;;;;;;;;;;;;;;2132725;27;20010;-45
2022/07/04 06:33:03;;;;;;;;;;;;;;;;;;2132586;27;20329;-46
2022/07/04 06:36:42;;;;;;;;;;;;;;;;;;2132497;27;20056;-46
2022/07/04 06:37:43;;;;;;;;;;;;;;;;;;2132475;27;19961;-46
2022/07/04 06:38:44;;;;;;;;;;;;;;;;;;2132362;27;19933;-45
2022/07/04 06:39:45;;;;;;;;;;;;;;;;;;2132654;27;19923;-45
2022/07/04 06:40:46;;;;;;;;;;;;;;;;;;2132249;27;19995;-45
2022/07/04 06:41:47;;;;;;;;;;;;;;;;;;2135893;27;19951;-46
2022/07/04 06:42:47;;;;;;;;;;;;;;;;;;2140851;27;19975;-45
2022/07/04 06:43:48;;;;;;;;;;;;;;;;;;2140890;27;19930;-45
2022/07/04 06:44:49;;;;;;;;;;;;;;;;;;2140946;27;20064;-45
2022/07/04 06:45:51;;;;;;;;;;;;;;;;;;2140896;27;20387;-45
2022/07/04 06:46:51;;;;;;;;;;;;;;;;;;2141099;27;19923;-47
2022/07/04 06:47:52;;;;;;;;;;;;;;;;;;2140951;27;19923;-48
2022/07/04 06:48:53;;;;;;;;;;;;;;;;;;2141252;27;20005;-48
2022/07/04 06:49:54;;;;;;;;;;;;;;;;;;2140904;27;19923;-49
2022/07/04 06:50:55;;;;;;;;;;;;;;;;;;2140937;27;19930;-48
2022/07/04 06:51:56;;;;;;;;;;;;;;;;;;2141052;27;19971;-48
2022/07/04 06:52:57;;;;;;;;;;;;;;;;;;2141173;27;20009;-49
2022/07/04 06:53:58;;;;;;;;;;;;;;;;;;2141110;27;20280;-47
2022/07/04 06:54:59;;;;;;;;;;;;;;;;;;2140929;27;20013;-47
2022/07/04 06:56:04;;;;;;;;;;;;;;;;;;2140800;27;20406;-47
2022/07/04 06:57:05;;;;;;;;;;;;;;;;;;2141157;27;20042;-45
2022/07/04 06:58:26;;;;;;;;;;;;;;;;;;2140696;27;19967;-48
2022/07/04 06:59:27;;;;;;;;;;;;;;;;;;2141092;27;20021;-45
2022/07/04 07:00:30;;;;;;;;;;;;;;;;;;2141024;27;19927;-46
2022/07/04 07:01:31;;;;;;;;;;;;;;;;;;2140731;27;19949;-44
2022/07/04 07:02:32;;;;;;;;;;;;;;;;;;2141171;27;19927;-45
2022/07/04 07:03:33;;;;;;;;;;;;;;;;;;2140811;27;19923;-42
2022/07/04 07:04:34;;;;;;;;;;;;;;;;;;2140919;27;19923;-43
2022/07/04 07:05:36;;;;;;;;;;;;;;;;;;2140951;27;20058;-46